createdAt,value
2018-01-14T00:02:41.743Z,5.03
2018-01-14T00:05:42.723Z,4.53
2018-01-14T00:08:43.672Z,5.00
2018-01-14T00:11:44.667Z,4.87
2018-01-14T00:14:45.635Z,4.87
2018-01-14T00:17:46.639Z,4.53
2018-01-14T00:20:47.586Z,4.87
2018-01-14T00:23:48.562Z,5.15
2018-01-14T00:26:49.491Z,4.80
2018-01-14T00:29:50.501Z,4.50
2018-01-14T00:32:51.438Z,4.80
2018-01-14T00:35:52.464Z,4.43
2018-01-14T00:38:53.479Z,4.70
2018-01-14T00:41:54.479Z,4.90
2018-01-14T00:44:55.502Z,5.00
2018-01-14T00:47:56.486Z,4.60
2018-01-14T00:50:57.435Z,4.70
2018-01-14T00:53:58.462Z,4.90
2018-01-14T00:56:59.426Z,4.67
2018-01-14T01:00:00.370Z,4.80
2018-01-14T01:03:01.379Z,5.28
2018-01-14T01:06:02.543Z,4.60
2018-01-14T01:09:03.825Z,4.90
2018-01-14T01:12:04.959Z,4.93
2018-01-14T01:15:05.929Z,4.87
2018-01-14T01:18:06.859Z,5.40
2018-01-14T01:21:07.854Z,5.03
2018-01-14T01:24:08.862Z,5.03
2018-01-14T01:27:09.856Z,5.07
2018-01-14T01:30:10.782Z,4.67
2018-01-14T01:33:11.762Z,5.30
2018-01-14T01:36:12.694Z,4.70
2018-01-14T01:39:13.863Z,5.13
2018-01-14T01:42:14.826Z,4.30
2018-01-14T01:45:15.843Z,4.63
2018-01-14T01:48:16.826Z,5.23
2018-01-14T01:51:17.779Z,5.30
2018-01-14T01:54:18.759Z,4.90
2018-01-14T01:57:19.703Z,5.20
2018-01-14T02:00:20.690Z,5.27
2018-01-14T02:03:21.798Z,4.60
2018-01-14T02:06:23.295Z,5.23
2018-01-14T02:09:24.274Z,4.93
2018-01-14T02:12:25.254Z,4.80
2018-01-14T02:15:26.282Z,4.63
2018-01-14T02:18:27.295Z,4.70
2018-01-14T02:21:28.324Z,4.83
2018-01-14T02:24:29.292Z,5.13
2018-01-14T02:27:30.233Z,4.97
2018-01-14T02:30:31.218Z,4.40
2018-01-14T02:33:32.238Z,5.07
2018-01-14T02:36:33.219Z,4.87
2018-01-14T02:39:34.227Z,4.60
2018-01-14T02:42:35.199Z,5.23
2018-01-14T02:45:36.142Z,5.10
2018-01-14T02:48:37.139Z,5.33
2018-01-14T02:51:38.115Z,4.90
2018-01-14T02:54:39.099Z,5.50
2018-01-14T02:57:40.043Z,5.37
2018-01-14T03:00:41.286Z,5.20
2018-01-14T03:03:42.194Z,5.17
2018-01-14T03:06:43.191Z,4.53
2018-01-14T03:09:44.307Z,5.33
2018-01-14T03:12:45.214Z,4.67
2018-01-14T03:15:46.224Z,5.10
2018-01-14T03:18:47.254Z,4.85
2018-01-14T03:21:48.234Z,5.28
2018-01-14T03:24:49.406Z,4.85
2018-01-14T03:27:50.399Z,5.17
2018-01-14T03:30:51.387Z,5.10
2018-01-14T03:33:52.367Z,5.08
2018-01-14T03:36:53.364Z,5.17
2018-01-14T03:39:54.283Z,4.70
2018-01-14T03:42:55.278Z,5.17
2018-01-14T03:45:56.239Z,4.72
2018-01-14T03:48:57.235Z,4.87
2018-01-14T03:51:58.193Z,4.87
2018-01-14T03:54:59.178Z,4.50
2018-01-14T03:58:00.132Z,5.28
2018-01-14T04:01:01.132Z,4.75
2018-01-14T04:04:02.106Z,5.23
2018-01-14T04:07:03.050Z,4.83
2018-01-14T04:10:04.294Z,5.10
2018-01-14T04:13:05.202Z,5.35
2018-01-14T04:16:06.127Z,4.90
2018-01-14T04:19:07.083Z,4.80
2018-01-14T04:22:08.051Z,5.23
2018-01-14T04:25:08.990Z,4.72
2018-01-14T04:28:10.000Z,4.80
2018-01-14T04:31:10.971Z,5.40
2018-01-14T04:34:12.022Z,5.17
2018-01-14T04:37:13.019Z,4.85
2018-01-14T04:40:13.990Z,5.00
2018-01-14T04:43:14.958Z,4.97
2018-01-14T04:46:15.940Z,4.87
2018-01-14T04:49:16.906Z,5.20
2018-01-14T04:52:17.909Z,5.00
2018-01-14T04:55:18.859Z,4.63
2018-01-14T04:58:20.649Z,5.03
2018-01-14T05:01:21.624Z,5.20
2018-01-14T05:04:22.618Z,5.00
2018-01-14T05:07:23.554Z,5.27
2018-01-14T05:10:24.546Z,4.97
2018-01-14T05:13:25.562Z,5.10
2018-01-14T05:16:26.507Z,4.90
2018-01-14T05:19:27.451Z,4.70
2018-01-14T05:22:28.502Z,5.10
2018-01-14T05:25:29.507Z,4.53
2018-01-14T05:28:30.503Z,4.77
2018-01-14T05:31:31.451Z,5.00
2018-01-14T05:34:32.706Z,4.90
2018-01-14T05:37:33.710Z,4.67
2018-01-14T05:40:34.838Z,4.80
2018-01-14T05:43:35.754Z,4.97
2018-01-14T05:46:37.776Z,4.70
2018-01-14T05:49:38.739Z,4.87
2018-01-14T05:52:39.727Z,5.22
2018-01-14T05:55:40.675Z,4.55
2018-01-14T05:58:42.686Z,5.23
2018-01-14T06:01:43.810Z,4.53
2018-01-14T06:04:44.826Z,4.63
2018-01-14T06:07:45.850Z,4.67
2018-01-14T06:10:46.790Z,4.53
2018-01-14T06:13:47.771Z,4.70
2018-01-14T06:16:48.728Z,4.33
2018-01-14T06:19:49.746Z,4.53
2018-01-14T06:22:50.666Z,4.60
2018-01-14T06:25:51.686Z,4.60
2018-01-14T06:28:52.619Z,4.77
2018-01-14T06:31:53.638Z,4.80
2018-01-14T06:34:54.562Z,4.70
2018-01-14T06:37:55.614Z,4.73
2018-01-14T06:40:56.639Z,4.77
2018-01-14T06:43:57.581Z,4.77
2018-01-14T06:46:58.586Z,4.90
2018-01-14T06:49:59.559Z,4.20
2018-01-14T06:53:00.518Z,4.47
2018-01-14T06:56:01.519Z,4.53
2018-01-14T06:59:02.464Z,5.00
2018-01-14T07:02:03.455Z,4.87
2018-01-14T07:05:04.402Z,4.80
2018-01-14T07:08:05.419Z,4.97
2018-01-14T07:11:06.367Z,4.87
2018-01-14T07:14:07.441Z,4.70
2018-01-14T07:17:08.424Z,4.72
2018-01-14T07:20:09.398Z,5.10
2018-01-14T07:23:10.363Z,4.83
2018-01-14T07:26:11.355Z,5.10
2018-01-14T07:29:12.317Z,4.60
2018-01-14T07:32:13.303Z,4.87
2018-01-14T07:35:14.265Z,4.67
2018-01-14T07:38:15.260Z,4.60
2018-01-14T07:41:16.201Z,5.20
2018-01-14T07:44:17.211Z,5.50
2018-01-14T07:47:18.147Z,5.33
2018-01-14T07:50:19.186Z,4.40
2018-01-14T07:53:20.260Z,5.07
2018-01-14T07:56:21.223Z,4.33
2018-01-14T07:59:22.166Z,4.80
2018-01-14T08:02:23.171Z,5.00
2018-01-14T08:05:24.308Z,5.00
2018-01-14T08:08:25.192Z,5.53
2018-01-14T08:11:26.187Z,4.90
2018-01-14T08:14:27.131Z,4.77
2018-01-14T08:17:29.172Z,5.40
2018-01-14T08:20:30.094Z,5.13
2018-01-14T08:23:31.113Z,5.30
2018-01-14T08:26:32.055Z,5.25
2018-01-14T08:29:33.055Z,5.30
2018-01-14T08:32:34.171Z,5.10
2018-01-14T08:35:35.109Z,5.23
2018-01-14T08:38:36.089Z,5.07
2018-01-14T08:41:37.038Z,4.60
2018-01-14T08:44:38.039Z,5.10
2018-01-14T08:47:38.986Z,5.53
2018-01-14T08:50:39.998Z,4.90
2018-01-14T08:53:40.902Z,4.60
2018-01-14T08:56:41.817Z,5.00
2018-01-14T08:59:42.711Z,4.57
2018-01-14T09:02:43.690Z,5.27
2018-01-14T09:05:44.645Z,5.10
2018-01-14T09:08:45.668Z,5.13
2018-01-14T09:11:46.686Z,5.17
2018-01-14T09:14:48.710Z,4.83
2018-01-14T09:17:49.659Z,5.07
2018-01-14T09:20:50.675Z,5.00
2018-01-14T09:23:51.722Z,4.70
2018-01-14T09:26:52.758Z,5.03
2018-01-14T09:29:53.682Z,5.10
2018-01-14T09:32:54.667Z,5.37
2018-01-14T09:35:55.614Z,5.60
2018-01-14T09:38:56.762Z,4.90
2018-01-14T09:41:57.847Z,4.70
2018-01-14T09:44:59.031Z,5.93
2018-01-14T09:48:00.072Z,5.83
2018-01-14T09:51:01.038Z,5.70
2018-01-14T09:54:02.010Z,5.93
2018-01-14T09:57:02.955Z,5.90
2018-01-14T10:00:03.955Z,5.47
2018-01-14T10:03:04.942Z,5.80
2018-01-14T10:06:05.882Z,5.37
2018-01-14T10:09:06.879Z,5.20
2018-01-14T10:12:07.838Z,5.50
2018-01-14T10:15:08.855Z,5.47
2018-01-14T10:18:09.790Z,5.27
2018-01-14T10:21:11.004Z,5.30
2018-01-14T10:24:11.939Z,5.70
2018-01-14T10:27:12.956Z,5.37
2018-01-14T10:30:13.887Z,5.60
2018-01-14T10:33:14.906Z,5.23
2018-01-14T10:36:15.872Z,5.33
2018-01-14T10:39:16.831Z,6.33
2018-01-14T10:42:18.075Z,5.20
2018-01-14T10:45:19.043Z,5.87
2018-01-14T10:48:20.071Z,5.57
2018-01-14T10:51:21.047Z,5.87
2018-01-14T10:54:21.999Z,5.47
2018-01-14T10:57:22.947Z,5.60
2018-01-14T11:00:24.235Z,6.20
2018-01-14T11:03:25.205Z,5.17
2018-01-14T11:06:26.317Z,5.03
2018-01-14T11:09:27.377Z,5.27
2018-01-14T11:12:28.374Z,5.30
2018-01-14T11:15:29.375Z,5.50
2018-01-14T11:18:30.324Z,7.07
2018-01-14T11:21:31.355Z,6.50
2018-01-14T11:24:32.278Z,6.23
2018-01-14T11:27:33.291Z,6.13
2018-01-14T11:30:34.223Z,6.00
2018-01-14T11:33:35.250Z,5.30
2018-01-14T11:36:36.172Z,5.80
2018-01-14T11:39:37.166Z,5.87
2018-01-14T11:42:38.119Z,5.60
2018-01-14T11:45:39.143Z,6.50
2018-01-14T11:48:40.087Z,6.40
2018-01-14T11:51:41.087Z,6.53
2018-01-14T11:54:42.040Z,7.20
2018-01-14T11:57:43.031Z,6.30
2018-01-14T12:00:44.011Z,5.57
2018-01-14T12:03:44.986Z,5.93
2018-01-14T12:06:45.880Z,6.07
2018-01-14T12:09:46.839Z,5.67
2018-01-14T12:12:47.782Z,5.40
2018-01-14T12:15:48.807Z,5.63
2018-01-14T12:18:49.695Z,5.77
2018-01-14T12:21:50.639Z,5.83
2018-01-14T12:24:51.624Z,5.50
2018-01-14T12:27:52.568Z,5.57
2018-01-14T12:30:53.470Z,5.57
2018-01-14T12:33:54.418Z,5.27
2018-01-14T12:36:55.368Z,5.97
2018-01-14T12:39:56.314Z,5.70
2018-01-14T12:42:57.300Z,5.50
2018-01-14T12:45:58.261Z,5.63
2018-01-14T12:48:59.259Z,6.00
2018-01-14T12:52:00.207Z,5.30
2018-01-14T12:55:02.319Z,5.37
2018-01-14T12:58:03.222Z,5.63
2018-01-14T13:01:04.242Z,5.17
2018-01-14T13:04:05.279Z,5.33
2018-01-14T13:07:06.221Z,5.37
2018-01-14T13:10:09.180Z,4.90
2018-01-14T13:13:10.098Z,4.87
2018-01-14T13:16:11.098Z,5.10
2018-01-14T13:19:12.463Z,5.20
2018-01-14T13:22:13.384Z,4.78
2018-01-14T13:25:14.383Z,5.20
2018-01-14T13:28:15.350Z,4.87
2018-01-14T13:31:16.323Z,4.40
2018-01-14T13:34:17.348Z,4.80
2018-01-14T13:37:18.286Z,5.00
2018-01-14T13:40:19.294Z,4.70
2018-01-14T13:43:20.219Z,5.00
2018-01-14T13:46:21.251Z,4.50
2018-01-14T13:49:22.199Z,5.30
2018-01-14T13:52:23.194Z,4.90
2018-01-14T13:55:24.138Z,5.07
2018-01-14T13:58:26.159Z,5.43
2018-01-14T14:01:27.138Z,4.40
2018-01-14T14:04:28.051Z,4.90
2018-01-14T14:07:28.988Z,4.70
2018-01-14T14:10:29.999Z,4.60
2018-01-14T14:13:31.023Z,5.00
2018-01-14T14:16:32.048Z,4.67
2018-01-14T14:19:33.368Z,4.73
2018-01-14T14:22:34.400Z,4.43
2018-01-14T14:25:35.383Z,4.93
2018-01-14T14:28:36.339Z,4.47
2018-01-14T14:31:37.382Z,4.70
2018-01-14T14:34:38.301Z,4.50
2018-01-14T14:37:39.453Z,4.10
2018-01-14T14:40:40.480Z,4.90
2018-01-14T14:43:41.416Z,5.47
2018-01-14T14:46:42.343Z,4.78
2018-01-14T14:49:43.249Z,4.17
2018-01-14T14:52:44.198Z,4.30
2018-01-14T14:55:45.171Z,4.43
2018-01-14T14:58:46.183Z,4.47
2018-01-14T15:01:47.135Z,4.73
2018-01-14T15:04:48.402Z,4.43
2018-01-14T15:07:49.322Z,4.53
2018-01-14T15:10:50.385Z,4.50
2018-01-14T15:13:51.826Z,4.60
2018-01-14T15:16:52.939Z,4.30
2018-01-14T15:19:53.879Z,4.03
2018-01-14T15:22:54.906Z,4.50
2018-01-14T15:25:55.842Z,4.23
2018-01-14T15:28:56.863Z,4.10
2018-01-14T15:31:57.806Z,4.37
2018-01-14T15:34:58.855Z,3.83
2018-01-14T15:37:59.775Z,4.10
2018-01-14T15:41:00.791Z,4.13
2018-01-14T15:44:01.763Z,3.90
2018-01-14T15:47:02.771Z,4.10
2018-01-14T15:50:03.727Z,4.20
2018-01-14T15:53:04.748Z,3.90
2018-01-14T15:56:05.702Z,3.90
2018-01-14T15:59:06.736Z,4.07
2018-01-14T16:02:07.678Z,4.20
2018-01-14T16:05:08.715Z,3.90
2018-01-14T16:08:09.662Z,3.80
2018-01-14T16:11:10.707Z,4.10
2018-01-14T16:14:11.655Z,3.80
2018-01-14T16:17:12.691Z,4.20
2018-01-14T16:20:13.635Z,3.80
2018-01-14T16:23:14.667Z,3.87
2018-01-14T16:26:15.648Z,3.80
2018-01-14T16:29:16.647Z,3.50
2018-01-14T16:32:17.659Z,3.83
2018-01-14T16:35:18.563Z,9.23
2018-01-14T16:38:19.534Z,6.53
2018-01-14T16:41:20.512Z,5.97
2018-01-14T16:44:21.503Z,5.40
2018-01-14T16:47:22.486Z,5.77
2018-01-14T16:50:23.424Z,5.13
2018-01-14T16:53:24.418Z,5.00
2018-01-14T16:56:25.368Z,5.13
2018-01-14T16:59:26.358Z,5.10
2018-01-14T17:02:27.311Z,5.30
2018-01-14T17:05:28.327Z,4.77
2018-01-14T17:08:29.267Z,5.07
2018-01-14T17:11:30.286Z,4.87
2018-01-14T17:14:31.412Z,4.67
2018-01-14T17:17:32.509Z,4.97
2018-01-14T17:20:33.471Z,5.07
2018-01-14T17:23:34.491Z,4.90
2018-01-14T17:26:35.410Z,4.70
2018-01-14T17:29:36.445Z,5.10
2018-01-14T17:32:37.349Z,5.80
2018-01-14T17:35:39.055Z,5.50
2018-01-14T17:38:39.968Z,5.50
2018-01-14T17:41:40.916Z,5.10
2018-01-14T17:44:41.842Z,5.58
2018-01-14T17:47:42.747Z,6.57
2018-01-14T17:50:43.675Z,5.25
2018-01-14T17:53:44.572Z,6.50
2018-01-14T17:56:45.499Z,6.10
2018-01-14T17:59:46.412Z,5.80
2018-01-14T18:02:47.363Z,6.20
2018-01-14T18:05:48.272Z,6.30
2018-01-14T18:08:49.193Z,5.90
2018-01-14T18:11:50.110Z,6.10
2018-01-14T18:14:51.043Z,5.60
2018-01-14T18:17:52.051Z,6.53
2018-01-14T18:20:52.951Z,6.57
2018-01-14T18:23:54.169Z,5.77
2018-01-14T18:26:55.071Z,6.37
2018-01-14T18:29:55.987Z,6.47
2018-01-14T18:32:56.879Z,5.45
2018-01-14T18:35:57.807Z,5.78
2018-01-14T18:38:58.751Z,5.63
2018-01-14T18:41:59.683Z,5.53
2018-01-14T18:45:00.591Z,5.60
2018-01-14T18:48:01.543Z,5.50
2018-01-14T18:51:02.485Z,5.62
2018-01-14T18:54:03.390Z,6.20
2018-01-14T18:57:04.353Z,6.20
2018-01-14T19:00:05.275Z,5.90
2018-01-14T19:03:06.251Z,5.73
2018-01-14T19:06:07.182Z,5.87
2018-01-14T19:09:08.232Z,5.57
2018-01-14T19:12:09.151Z,5.37
2018-01-14T19:15:10.159Z,5.73
2018-01-14T19:18:11.142Z,5.53
2018-01-14T19:21:12.179Z,5.43
2018-01-14T19:24:13.195Z,5.73
2018-01-14T19:27:14.162Z,5.47
2018-01-14T19:30:15.396Z,5.58
2018-01-14T19:33:16.328Z,5.63
2018-01-14T19:36:17.331Z,5.40
2018-01-14T19:39:18.299Z,5.37
2018-01-14T19:42:19.259Z,5.87
2018-01-14T19:45:20.265Z,5.13
2018-01-14T19:48:21.315Z,5.13
2018-01-14T19:51:22.364Z,5.20
2018-01-14T19:54:23.293Z,5.33
2018-01-14T19:57:24.303Z,5.77
2018-01-14T20:00:25.250Z,5.20
2018-01-14T20:03:26.410Z,5.40
2018-01-14T20:06:27.379Z,5.53
2018-01-14T20:09:28.383Z,4.83
2018-01-14T20:12:29.481Z,4.90
2018-01-14T20:15:30.413Z,5.50
2018-01-14T20:18:31.434Z,5.53
2018-01-14T20:21:32.391Z,5.05
2018-01-14T20:24:33.657Z,5.60
2018-01-14T20:27:34.567Z,6.00
2018-01-14T20:30:35.596Z,6.33
2018-01-14T20:33:36.561Z,5.80
2018-01-14T20:36:37.571Z,6.13
2018-01-14T20:39:38.632Z,5.80
2018-01-14T20:42:39.654Z,5.77
2018-01-14T20:45:40.630Z,5.67
2018-01-14T20:48:41.606Z,6.10
2018-01-14T20:51:42.895Z,5.73
2018-01-14T20:54:43.806Z,5.20
2018-01-14T20:57:44.864Z,5.58
2018-01-14T21:00:45.815Z,5.73
2018-01-14T21:03:46.879Z,6.00
2018-01-14T21:06:47.974Z,5.50
2018-01-14T21:09:48.886Z,5.50
2018-01-14T21:12:49.910Z,5.50
2018-01-14T21:15:50.807Z,5.50
2018-01-14T21:18:52.544Z,5.90
2018-01-14T21:21:53.510Z,6.00
2018-01-14T21:24:54.534Z,5.33
2018-01-14T21:27:55.502Z,6.13
2018-01-14T21:30:56.537Z,5.67
2018-01-14T21:33:57.515Z,5.90
2018-01-14T21:36:58.447Z,5.70
2018-01-14T21:39:59.406Z,5.13
2018-01-14T21:43:00.343Z,5.63
2018-01-14T21:46:01.382Z,5.67
2018-01-14T21:49:02.295Z,5.30
2018-01-14T21:52:03.825Z,5.53
2018-01-14T21:55:04.819Z,5.78
2018-01-14T21:58:05.848Z,5.70
2018-01-14T22:01:06.799Z,5.77
2018-01-14T22:04:07.831Z,5.23
2018-01-14T22:07:08.798Z,5.53
2018-01-14T22:10:09.740Z,5.23
2018-01-14T22:13:10.736Z,5.17
2018-01-14T22:16:11.775Z,5.43
2018-01-14T22:19:12.763Z,5.20
2018-01-14T22:22:13.707Z,5.30
2018-01-14T22:25:14.695Z,5.50
2018-01-14T22:28:15.626Z,5.63
2018-01-14T22:31:16.627Z,5.20
2018-01-14T22:34:17.647Z,5.27
2018-01-14T22:37:18.659Z,5.10
2018-01-14T22:40:19.707Z,5.27
2018-01-14T22:43:20.732Z,5.70
2018-01-14T22:46:21.704Z,5.07
2018-01-14T22:49:22.687Z,5.33
2018-01-14T22:52:23.934Z,5.27
2018-01-14T22:55:24.955Z,5.37
2018-01-14T22:58:25.953Z,5.57
2018-01-14T23:01:26.983Z,5.40
2018-01-14T23:04:27.960Z,5.13
2018-01-14T23:07:28.991Z,5.67
2018-01-14T23:10:29.979Z,5.20
2018-01-14T23:13:30.999Z,4.97
2018-01-14T23:16:31.996Z,5.20
2018-01-14T23:19:32.947Z,4.73
2018-01-14T23:22:33.946Z,5.43
2018-01-14T23:25:34.951Z,5.30
2018-01-14T23:28:35.999Z,5.37
2018-01-14T23:31:36.955Z,5.33
2018-01-14T23:34:37.979Z,5.27
2018-01-14T23:37:38.970Z,5.00
2018-01-14T23:40:39.915Z,5.50
2018-01-14T23:43:40.894Z,4.80
2018-01-14T23:46:41.823Z,4.73
2018-01-14T23:49:42.851Z,5.47
2018-01-14T23:52:43.859Z,5.07
2018-01-14T23:55:44.886Z,5.43
2018-01-14T23:58:45.878Z,5.17
